createdAt,value
2022-11-07T00:01:51.536Z,26.17
2022-11-07T00:04:19.024Z,25.03
2022-11-07T00:06:46.774Z,26.33
2022-11-07T00:09:14.229Z,25.93
2022-11-07T00:11:41.727Z,26.30
2022-11-07T00:14:09.189Z,26.70
2022-11-07T00:16:36.651Z,27.17
2022-11-07T00:19:04.204Z,26.53
2022-11-07T00:21:31.635Z,26.23
2022-11-07T00:23:59.273Z,24.83
2022-11-07T00:26:26.757Z,26.77
2022-11-07T00:28:54.236Z,26.17
2022-11-07T00:31:21.707Z,25.37
2022-11-07T00:33:49.588Z,25.73
2022-11-07T00:36:22.730Z,26.80
2022-11-07T00:38:50.803Z,25.30
2022-11-07T00:41:18.867Z,25.47
2022-11-07T00:43:46.662Z,26.07
2022-11-07T00:46:16.659Z,25.30
2022-11-07T00:48:44.339Z,25.90
2022-11-07T00:51:22.243Z,25.47
2022-11-07T00:53:50.523Z,25.07
2022-11-07T00:56:21.884Z,25.23
2022-11-07T00:58:49.745Z,24.87
2022-11-07T01:01:24.950Z,25.60
2022-11-07T01:04:11.802Z,25.17
2022-11-07T01:06:42.225Z,25.53
2022-11-07T01:09:17.312Z,26.50
2022-11-07T01:11:45.389Z,24.87
2022-11-07T01:14:15.606Z,26.47
2022-11-07T01:16:43.859Z,24.90
2022-11-07T01:19:11.443Z,25.53
2022-11-07T01:21:41.020Z,25.70
2022-11-07T01:24:11.622Z,25.43
2022-11-07T01:26:40.309Z,26.23
2022-11-07T01:29:08.387Z,24.30
2022-11-07T01:31:36.584Z,24.93
2022-11-07T01:34:04.986Z,25.00
2022-11-07T01:36:33.058Z,24.37
2022-11-07T01:39:00.710Z,23.80
2022-11-07T01:41:35.659Z,24.80
2022-11-07T01:44:24.925Z,23.33
2022-11-07T01:46:56.123Z,24.73
2022-11-07T01:49:37.014Z,22.47
2022-11-07T01:52:19.089Z,22.73
2022-11-07T01:55:12.312Z,22.13
2022-11-07T01:57:49.926Z,23.57
2022-11-07T02:00:22.173Z,21.97
2022-11-07T02:02:56.353Z,21.43
2022-11-07T02:05:49.438Z,22.43
2022-11-07T02:08:18.197Z,22.83
2022-11-07T02:10:45.745Z,22.97
2022-11-07T02:13:22.178Z,23.57
2022-11-07T02:15:49.630Z,22.77
2022-11-07T02:18:17.473Z,18.20
2022-11-07T02:20:46.478Z,22.40
2022-11-07T02:23:34.203Z,23.10
2022-11-07T02:26:01.622Z,22.73
2022-11-07T02:28:32.179Z,21.83
2022-11-07T02:30:59.759Z,22.50
2022-11-07T02:33:27.147Z,22.53
2022-11-07T02:35:55.247Z,21.53
2022-11-07T02:38:31.328Z,21.17
2022-11-07T02:41:06.018Z,21.77
2022-11-07T02:43:35.676Z,20.83
2022-11-07T02:46:08.175Z,21.50
2022-11-07T02:48:51.786Z,21.27
2022-11-07T02:51:19.199Z,20.10
2022-11-07T02:53:46.799Z,21.53
2022-11-07T02:56:14.929Z,19.97
2022-11-07T02:58:42.578Z,21.73
2022-11-07T03:01:10.261Z,20.33
2022-11-07T03:03:44.244Z,22.80
2022-11-07T03:06:15.806Z,21.47
2022-11-07T03:08:43.429Z,21.57
2022-11-07T03:11:12.293Z,20.07
2022-11-07T03:13:40.655Z,20.30
2022-11-07T03:16:11.083Z,21.40
2022-11-07T03:18:38.591Z,22.53
2022-11-07T03:21:07.041Z,22.17
2022-11-07T03:23:36.335Z,21.27
2022-11-07T03:26:05.106Z,20.93
2022-11-07T03:28:33.321Z,23.97
2022-11-07T03:31:02.904Z,22.87
2022-11-07T03:33:31.611Z,21.43
2022-11-07T03:35:59.319Z,21.67
2022-11-07T03:38:26.719Z,22.90
2022-11-07T03:40:54.174Z,21.43
2022-11-07T03:43:21.619Z,22.43
2022-11-07T03:45:49.085Z,21.90
2022-11-07T03:48:16.491Z,20.70
2022-11-07T03:50:43.930Z,23.00
2022-11-07T03:53:11.377Z,22.60
2022-11-07T03:55:40.248Z,21.43
2022-11-07T03:58:07.669Z,21.97
2022-11-07T04:00:35.290Z,21.80
2022-11-07T04:03:04.595Z,21.97
2022-11-07T04:05:32.237Z,20.73
2022-11-07T04:07:59.643Z,20.17
2022-11-07T04:10:27.154Z,27.13
2022-11-07T04:13:13.709Z,34.60
2022-11-07T04:16:02.086Z,32.80
2022-11-07T04:18:29.592Z,28.60
2022-11-07T04:20:57.063Z,25.57
2022-11-07T04:23:24.448Z,27.40
2022-11-07T04:26:10.658Z,26.10
2022-11-07T04:28:38.134Z,24.67
2022-11-07T04:31:05.799Z,22.77
2022-11-07T04:33:33.170Z,22.90
2022-11-07T04:36:00.615Z,21.47
2022-11-07T04:38:28.030Z,22.23
2022-11-07T04:40:57.721Z,20.73
2022-11-07T04:43:27.483Z,21.30
2022-11-07T04:45:54.894Z,21.53
2022-11-07T04:48:22.354Z,21.33
2022-11-07T04:50:50.233Z,21.47
2022-11-07T04:53:18.715Z,22.27
2022-11-07T04:55:46.958Z,20.77
2022-11-07T04:58:14.584Z,19.83
2022-11-07T05:00:42.014Z,21.17
2022-11-07T05:03:10.080Z,21.10
2022-11-07T05:05:37.733Z,20.30
2022-11-07T05:08:05.697Z,21.10
2022-11-07T05:10:33.203Z,22.80
2022-11-07T05:13:00.708Z,18.33
2022-11-07T05:15:28.097Z,18.93
2022-11-07T05:17:55.435Z,19.30
2022-11-07T05:20:33.921Z,18.73
2022-11-07T05:23:19.178Z,20.13
2022-11-07T05:25:52.938Z,21.00
2022-11-07T05:28:36.899Z,21.47
2022-11-07T05:31:07.942Z,20.03
2022-11-07T05:33:35.997Z,23.30
2022-11-07T05:36:21.890Z,20.60
2022-11-07T05:38:52.764Z,20.70
2022-11-07T05:41:22.220Z,20.40
2022-11-07T05:43:49.614Z,19.70
2022-11-07T05:46:17.094Z,22.20
2022-11-07T05:48:44.523Z,20.03
2022-11-07T05:51:11.909Z,19.70
2022-11-07T05:53:39.410Z,19.17
2022-11-07T05:56:07.233Z,20.17
2022-11-07T05:58:34.768Z,20.30
2022-11-07T06:01:06.841Z,19.53
2022-11-07T06:03:34.415Z,19.73
2022-11-07T06:06:01.846Z,19.57
2022-11-07T06:08:29.256Z,20.63
2022-11-07T06:10:56.671Z,20.00
2022-11-07T06:13:24.179Z,19.93
2022-11-07T06:15:51.611Z,20.77
2022-11-07T06:18:21.208Z,19.30
2022-11-07T06:20:48.693Z,19.83
2022-11-07T06:23:16.645Z,19.30
2022-11-07T06:25:44.433Z,19.20
2022-11-07T06:28:14.038Z,18.60
2022-11-07T06:30:42.988Z,19.53
2022-11-07T06:33:19.833Z,18.27
2022-11-07T06:35:47.914Z,18.10
2022-11-07T06:38:16.123Z,18.57
2022-11-07T06:40:44.527Z,18.23
2022-11-07T06:43:15.195Z,18.10
2022-11-07T06:45:44.049Z,18.07
2022-11-07T06:48:12.080Z,17.30
2022-11-07T06:50:40.152Z,17.37
2022-11-07T06:53:10.955Z,17.70
2022-11-07T06:55:39.381Z,16.70
2022-11-07T06:58:07.405Z,20.17
2022-11-07T07:00:36.497Z,19.87
2022-11-07T07:03:05.020Z,19.33
2022-11-07T07:05:36.460Z,21.63
2022-11-07T07:08:06.374Z,21.40
2022-11-07T07:10:43.650Z,22.70
2022-11-07T07:13:12.850Z,21.33
2022-11-07T07:15:55.778Z,19.13
2022-11-07T07:18:24.309Z,19.40
2022-11-07T07:20:53.179Z,18.07
2022-11-07T07:23:21.661Z,16.80
2022-11-07T07:25:49.639Z,20.57
2022-11-07T07:28:17.087Z,20.07
2022-11-07T07:30:48.865Z,20.33
2022-11-07T07:33:20.004Z,19.87
2022-11-07T07:35:47.494Z,21.40
2022-11-07T07:38:14.943Z,22.80
2022-11-07T07:40:42.367Z,21.83
2022-11-07T07:43:09.849Z,23.63
2022-11-07T07:45:37.330Z,21.77
2022-11-07T07:48:05.291Z,26.03
2022-11-07T07:50:32.795Z,29.10
2022-11-07T07:53:03.602Z,25.83
2022-11-07T07:55:34.108Z,19.83
2022-11-07T07:58:01.578Z,19.00
2022-11-07T08:00:28.922Z,19.43
2022-11-07T08:03:05.669Z,19.83
2022-11-07T08:05:33.166Z,18.23
2022-11-07T08:08:00.720Z,18.90
2022-11-07T08:10:41.337Z,19.17
2022-11-07T08:13:09.770Z,19.40
2022-11-07T08:15:37.439Z,22.03
2022-11-07T08:18:05.463Z,21.10
2022-11-07T08:20:33.030Z,20.93
2022-11-07T08:23:16.068Z,26.03
2022-11-07T08:25:57.363Z,21.53
2022-11-07T08:28:31.377Z,16.73
2022-11-07T08:31:09.040Z,16.03
2022-11-07T08:33:36.911Z,14.83
2022-11-07T08:36:06.182Z,15.30
2022-11-07T08:38:35.559Z,10.23
2022-11-07T08:41:04.659Z,10.37
2022-11-07T08:43:32.153Z,10.60
2022-11-07T08:45:59.960Z,9.83
2022-11-07T08:48:27.428Z,7.30
2022-11-07T08:50:57.092Z,6.83
2022-11-07T08:53:27.122Z,6.37
2022-11-07T08:56:02.862Z,5.67
2022-11-07T08:58:30.937Z,5.77
2022-11-07T09:00:59.166Z,5.17
2022-11-07T09:06:14.636Z,4.53
2022-11-07T09:08:42.114Z,4.33
2022-11-07T09:11:09.960Z,3.73
2022-11-07T09:13:37.763Z,4.17
2022-11-07T09:16:06.124Z,4.30
2022-11-07T09:18:34.431Z,5.00
2022-11-07T09:21:01.910Z,4.27
2022-11-07T09:23:29.440Z,4.50
2022-11-07T09:26:01.239Z,4.40
2022-11-07T09:28:28.976Z,4.47
2022-11-07T09:31:00.273Z,4.10
2022-11-07T09:33:28.224Z,3.80
2022-11-07T09:35:59.435Z,4.23
2022-11-07T09:38:27.193Z,4.50
2022-11-07T09:41:05.278Z,4.07
2022-11-07T09:44:33.322Z,3.60
2022-11-07T09:47:11.388Z,4.10
2022-11-07T09:50:21.993Z,4.60
2022-11-07T09:52:59.270Z,4.60
2022-11-07T09:55:34.319Z,5.67
2022-11-07T09:58:14.737Z,5.17
2022-11-07T10:00:42.407Z,4.17
2022-11-07T10:03:10.034Z,4.50
2022-11-07T10:06:08.539Z,6.07
2022-11-07T10:08:42.826Z,4.70
2022-11-07T10:11:53.835Z,4.73
2022-11-07T10:14:35.452Z,4.43
2022-11-07T10:17:32.132Z,4.30
2022-11-07T10:20:11.788Z,4.37
2022-11-07T10:22:59.458Z,4.87
2022-11-07T10:25:45.846Z,4.47
2022-11-07T10:28:17.632Z,5.07
2022-11-07T10:30:52.428Z,5.30
2022-11-07T10:33:31.754Z,4.47
2022-11-07T10:36:08.395Z,5.20
2022-11-07T10:38:41.184Z,6.00
2022-11-07T10:41:20.506Z,5.77
2022-11-07T10:43:58.332Z,4.50
2022-11-07T10:46:50.137Z,5.17
2022-11-07T10:49:31.639Z,4.60
2022-11-07T10:52:14.684Z,5.10
2022-11-07T10:54:43.563Z,4.50
2022-11-07T10:57:22.954Z,3.80
2022-11-07T10:59:53.340Z,3.77
2022-11-07T11:02:25.200Z,3.90
2022-11-07T11:04:57.735Z,3.33
2022-11-07T11:07:36.234Z,3.70
2022-11-07T11:10:18.526Z,4.00
2022-11-07T11:12:47.694Z,3.87
2022-11-07T11:15:22.367Z,4.17
2022-11-07T11:18:07.571Z,3.50
2022-11-07T11:20:57.159Z,3.40
2022-11-07T11:23:29.744Z,3.10
2022-11-07T11:26:14.480Z,2.70
2022-11-07T11:28:47.333Z,2.80
2022-11-07T11:31:29.864Z,2.47
2022-11-07T11:34:22.348Z,3.23
2022-11-07T11:37:12.885Z,2.70
2022-11-07T11:40:09.197Z,2.50
2022-11-07T11:43:01.175Z,1.93
2022-11-07T11:45:40.824Z,1.90
2022-11-07T11:48:27.080Z,2.03
2022-11-07T11:51:02.987Z,2.03
2022-11-07T11:53:30.832Z,1.67
2022-11-07T11:56:07.020Z,1.73
2022-11-07T11:59:05.795Z,1.80
2022-11-07T12:02:01.000Z,1.40
2022-11-07T12:04:55.718Z,1.90
2022-11-07T12:08:13.369Z,1.70
2022-11-07T12:11:20.624Z,1.60
2022-11-07T12:14:31.217Z,1.37
2022-11-07T12:17:32.779Z,1.33
2022-11-07T12:20:00.098Z,1.33
2022-11-07T12:22:50.024Z,1.30
2022-11-07T12:25:30.101Z,1.53
2022-11-07T12:28:53.927Z,1.37
2022-11-07T12:31:39.940Z,1.60
2022-11-07T12:34:28.020Z,1.43
2022-11-07T12:37:27.962Z,1.30
2022-11-07T12:40:45.390Z,1.47
2022-11-07T12:43:50.100Z,1.80
2022-11-07T12:47:04.781Z,1.43
2022-11-07T12:49:46.613Z,1.80
2022-11-07T12:52:28.475Z,2.00
2022-11-07T12:55:41.748Z,1.90
2022-11-07T12:58:24.702Z,2.37
2022-11-07T13:00:53.086Z,2.50
2022-11-07T13:03:27.329Z,3.17
2022-11-07T13:06:10.661Z,2.97
2022-11-07T13:08:58.424Z,2.80
2022-11-07T13:12:02.641Z,3.00
2022-11-07T13:14:42.769Z,3.37
2022-11-07T13:17:31.075Z,2.80
2022-11-07T13:20:20.918Z,3.00
2022-11-07T13:22:54.591Z,3.07
2022-11-07T13:25:32.619Z,2.93
2022-11-07T13:28:05.959Z,3.00
2022-11-07T13:30:37.384Z,3.40
2022-11-07T13:33:06.678Z,3.13
2022-11-07T13:35:36.190Z,3.03
2022-11-07T13:38:16.879Z,3.10
2022-11-07T13:41:06.379Z,3.00
2022-11-07T13:43:42.580Z,3.07
2022-11-07T13:46:30.740Z,3.00
2022-11-07T13:49:25.996Z,2.90
2022-11-07T13:51:56.800Z,2.97
2022-11-07T13:54:51.416Z,2.53
2022-11-07T13:57:28.852Z,2.23
2022-11-07T14:00:16.868Z,2.90
2022-11-07T14:02:59.035Z,2.97
2022-11-07T14:05:35.189Z,2.27
2022-11-07T14:08:23.584Z,2.73
2022-11-07T14:10:52.878Z,2.90
2022-11-07T14:13:27.188Z,3.17
2022-11-07T14:16:05.595Z,3.60
2022-11-07T14:18:53.479Z,2.87
2022-11-07T14:21:29.461Z,3.20
2022-11-07T14:23:57.408Z,2.87
2022-11-07T14:26:30.933Z,2.60
2022-11-07T14:29:00.968Z,3.10
2022-11-07T14:31:38.268Z,3.00
2022-11-07T14:34:20.936Z,2.90
2022-11-07T14:37:01.181Z,3.23
2022-11-07T14:39:32.804Z,3.10
2022-11-07T14:42:03.345Z,3.47
2022-11-07T14:44:54.315Z,3.40
2022-11-07T14:47:34.286Z,3.57
2022-11-07T14:50:03.524Z,3.53
2022-11-07T14:52:45.409Z,3.00
2022-11-07T14:55:24.882Z,3.50
2022-11-07T14:57:52.705Z,3.30
2022-11-07T15:00:23.139Z,3.20
2022-11-07T15:02:55.310Z,3.77
2022-11-07T15:05:28.983Z,3.10
2022-11-07T15:07:59.075Z,3.40
2022-11-07T15:10:39.111Z,3.50
2022-11-07T15:13:25.134Z,3.37
2022-11-07T15:16:23.048Z,4.03
2022-11-07T15:18:59.940Z,6.00
2022-11-07T15:21:31.075Z,10.97
2022-11-07T15:24:01.026Z,11.10
2022-11-07T15:26:34.943Z,7.60
2022-11-07T15:29:21.533Z,7.03
2022-11-07T15:31:49.785Z,7.70
2022-11-07T15:34:33.723Z,8.30
2022-11-07T15:37:19.486Z,7.43
2022-11-07T15:39:47.820Z,8.03
2022-11-07T15:42:15.649Z,9.23
2022-11-07T15:44:43.337Z,8.90
2022-11-07T15:47:28.815Z,8.37
2022-11-07T15:49:56.660Z,8.83
2022-11-07T15:52:24.176Z,9.80
2022-11-07T15:54:51.572Z,10.30
2022-11-07T15:57:20.139Z,11.57
2022-11-07T15:59:47.592Z,12.57
2022-11-07T16:02:17.494Z,14.30
2022-11-07T16:04:45.066Z,14.13
2022-11-07T16:07:18.455Z,15.70
2022-11-07T16:09:48.876Z,15.40
2022-11-07T16:12:19.659Z,12.23
2022-11-07T16:14:47.199Z,11.83
2022-11-07T16:17:18.428Z,10.60
2022-11-07T16:19:46.225Z,10.23
2022-11-07T16:22:15.517Z,11.33
2022-11-07T16:24:43.180Z,10.27
2022-11-07T16:27:17.585Z,9.57
2022-11-07T16:29:45.123Z,9.47
2022-11-07T16:32:17.875Z,7.70
2022-11-07T16:34:46.846Z,7.57
2022-11-07T16:37:14.238Z,7.33
2022-11-07T16:39:41.651Z,7.50
2022-11-07T16:42:16.392Z,6.67
2022-11-07T16:44:44.335Z,5.47
2022-11-07T16:47:16.131Z,5.27
2022-11-07T16:49:44.005Z,4.83
2022-11-07T16:52:16.735Z,4.60
2022-11-07T16:54:44.752Z,4.77
2022-11-07T16:57:17.935Z,4.63
2022-11-07T16:59:46.710Z,4.50
2022-11-07T17:02:24.460Z,4.73
2022-11-07T17:04:54.222Z,5.03
2022-11-07T17:07:23.461Z,4.30
2022-11-07T17:09:51.645Z,4.67
2022-11-07T17:12:22.118Z,4.67
2022-11-07T17:14:50.033Z,5.17
2022-11-07T17:17:19.159Z,4.83
2022-11-07T17:19:46.819Z,5.17
2022-11-07T17:22:15.576Z,5.43
2022-11-07T17:24:43.278Z,5.37
2022-11-07T17:27:25.955Z,6.37
2022-11-07T17:29:54.577Z,7.30
2022-11-07T17:32:22.119Z,6.43
2022-11-07T17:35:04.736Z,7.00
2022-11-07T17:37:37.423Z,5.50
2022-11-07T17:40:06.269Z,5.30
2022-11-07T17:42:37.836Z,5.80
2022-11-07T17:45:07.217Z,5.83
2022-11-07T17:47:34.955Z,5.80
2022-11-07T17:50:02.934Z,5.13
2022-11-07T17:52:30.781Z,5.43
2022-11-07T17:54:58.280Z,6.70
2022-11-07T17:57:25.732Z,6.10
2022-11-07T17:59:53.177Z,6.27
2022-11-07T18:02:21.060Z,6.37
2022-11-07T18:04:48.574Z,8.60
2022-11-07T18:07:16.144Z,8.20
2022-11-07T18:09:43.895Z,8.07
2022-11-07T18:12:11.565Z,9.80
2022-11-07T18:14:39.352Z,9.00
2022-11-07T18:17:06.798Z,11.00
2022-11-07T18:19:34.435Z,8.43
2022-11-07T18:22:01.818Z,7.30
2022-11-07T18:24:29.448Z,7.50
2022-11-07T18:26:56.830Z,11.53
2022-11-07T18:29:25.280Z,11.10
2022-11-07T18:31:52.724Z,11.20
2022-11-07T18:34:20.649Z,13.57
2022-11-07T18:36:48.200Z,14.43
2022-11-07T18:39:17.990Z,17.40
2022-11-07T18:41:45.929Z,16.40
2022-11-07T18:44:13.857Z,15.50
2022-11-07T18:46:42.911Z,17.63
2022-11-07T18:49:12.377Z,19.47
2022-11-07T18:51:40.100Z,27.57
2022-11-07T18:54:07.619Z,27.57
2022-11-07T18:56:35.055Z,30.93
2022-11-07T18:59:02.709Z,30.17
2022-11-07T19:01:32.514Z,40.50
2022-11-07T19:04:05.878Z,14.07
2022-11-07T19:06:34.123Z,14.53
2022-11-07T19:09:02.093Z,14.73
2022-11-07T19:11:31.651Z,17.57
2022-11-07T19:14:03.442Z,25.63
2022-11-07T19:16:31.713Z,19.37
2022-11-07T19:19:00.364Z,18.20
2022-11-07T19:21:28.040Z,16.37
2022-11-07T19:23:55.573Z,19.07
2022-11-07T19:26:24.975Z,27.03
2022-11-07T19:28:54.270Z,19.43
2022-11-07T19:31:21.863Z,28.00
2022-11-07T19:33:49.383Z,29.77
2022-11-07T19:36:23.835Z,21.57
2022-11-07T19:38:51.232Z,35.87
2022-11-07T19:41:19.309Z,27.03
2022-11-07T19:43:50.414Z,34.83
2022-11-07T19:46:23.481Z,29.50
2022-11-07T19:48:51.717Z,43.93
2022-11-07T19:51:23.135Z,40.30
2022-11-07T19:53:59.637Z,24.07
2022-11-07T19:56:30.751Z,27.50
2022-11-07T19:59:01.412Z,22.63
2022-11-07T20:01:32.787Z,25.53
2022-11-07T20:04:02.016Z,28.93
2022-11-07T20:06:38.090Z,20.20
2022-11-07T20:09:08.514Z,27.53
2022-11-07T20:11:36.884Z,31.33
2022-11-07T20:14:04.645Z,33.80
2022-11-07T20:16:34.029Z,31.53
2022-11-07T20:19:02.378Z,26.63
2022-11-07T20:21:30.912Z,21.13
2022-11-07T20:23:59.971Z,20.07
2022-11-07T20:26:30.254Z,44.70
2022-11-07T20:28:58.765Z,27.03
2022-11-07T20:31:30.644Z,32.37
2022-11-07T20:34:04.476Z,30.47
2022-11-07T20:36:32.606Z,22.07
2022-11-07T20:39:03.511Z,20.00
2022-11-07T20:41:31.096Z,20.17
2022-11-07T20:44:04.015Z,23.77
2022-11-07T20:46:34.408Z,31.93
2022-11-07T20:49:04.774Z,33.63
2022-11-07T20:51:32.389Z,33.97
2022-11-07T20:54:00.296Z,32.03
2022-11-07T20:56:29.235Z,30.50
2022-11-07T20:59:00.584Z,33.13
2022-11-07T21:01:37.407Z,47.97
2022-11-07T21:04:15.657Z,40.13
2022-11-07T21:06:43.301Z,40.00
2022-11-07T21:09:11.017Z,37.17
2022-11-07T21:11:38.605Z,29.93
2022-11-07T21:14:06.281Z,29.70
2022-11-07T21:16:36.673Z,27.90
2022-11-07T21:19:05.620Z,25.13
2022-11-07T21:21:33.922Z,24.50
2022-11-07T21:24:01.728Z,28.30
2022-11-07T21:26:35.056Z,26.63
2022-11-07T21:29:08.672Z,28.07
2022-11-07T21:31:39.405Z,36.30
2022-11-07T21:34:09.417Z,35.97
2022-11-07T21:36:36.894Z,37.93
2022-11-07T21:39:05.044Z,37.07
2022-11-07T21:41:32.648Z,33.47
2022-11-07T21:44:00.373Z,33.60
2022-11-07T21:46:34.489Z,31.47
2022-11-07T21:49:02.634Z,27.87
2022-11-07T21:51:33.216Z,26.60
2022-11-07T21:54:01.378Z,31.57
2022-11-07T21:56:38.241Z,28.87
2022-11-07T21:59:11.175Z,28.23
2022-11-07T22:01:39.783Z,29.30
2022-11-07T22:04:12.533Z,26.70
2022-11-07T22:06:44.123Z,26.73
2022-11-07T22:09:17.038Z,31.87
2022-11-07T22:11:44.771Z,28.20
2022-11-07T22:14:18.626Z,27.43
2022-11-07T22:16:46.624Z,28.90
2022-11-07T22:19:14.270Z,28.43
2022-11-07T22:21:42.396Z,26.27
2022-11-07T22:24:10.522Z,25.80
2022-11-07T22:26:37.991Z,26.43
2022-11-07T22:29:05.476Z,26.77
2022-11-07T22:31:33.005Z,27.67
2022-11-07T22:34:01.709Z,27.27
2022-11-07T22:36:30.113Z,27.70
2022-11-07T22:38:58.782Z,31.33
2022-11-07T22:41:27.704Z,30.67
2022-11-07T22:43:56.704Z,31.43
2022-11-07T22:46:27.979Z,24.60
2022-11-07T22:48:57.255Z,23.33
2022-11-07T22:51:34.084Z,24.63
2022-11-07T22:54:10.559Z,21.20
2022-11-07T22:56:38.486Z,23.00
2022-11-07T22:59:07.451Z,21.73
2022-11-07T23:01:39.240Z,23.83
2022-11-07T23:04:08.691Z,23.70
2022-11-07T23:06:36.222Z,21.07
2022-11-07T23:09:03.993Z,23.37
2022-11-07T23:11:50.542Z,21.63
2022-11-07T23:14:21.245Z,21.43
2022-11-07T23:16:55.778Z,26.63
2022-11-07T23:19:25.912Z,25.70
2022-11-07T23:21:56.665Z,26.97
2022-11-07T23:24:24.931Z,29.10
2022-11-07T23:26:52.414Z,25.30
2022-11-07T23:29:24.110Z,25.60
2022-11-07T23:31:53.137Z,24.63
2022-11-07T23:34:21.876Z,23.47
2022-11-07T23:36:53.089Z,23.17
2022-11-07T23:39:23.200Z,24.37
2022-11-07T23:41:50.715Z,23.07
2022-11-07T23:44:18.753Z,23.23
2022-11-07T23:47:05.114Z,23.37
2022-11-07T23:49:51.547Z,22.70
2022-11-07T23:52:19.304Z,22.90
2022-11-07T23:55:05.356Z,20.00
2022-11-07T23:57:57.371Z,21.93
